sensor_id;sensor_type;location;lat;lon;timestamp;pressure;altitude;pressure_sealevel;temperature;humidity
70302;BME280;57706;56.326;43.882;2022-07-03T00:00:30;100409.00;;;16.13;86.45
70302;BME280;57706;56.326;43.882;2022-07-03T00:02:56;100419.63;;;16.13;86.44
70302;BME280;57706;56.326;43.882;2022-07-03T00:05:22;100416.34;;;16.11;86.75
70302;BME280;57706;56.326;43.882;2022-07-03T00:07:48;100417.56;;;16.08;86.88
70302;BME280;57706;56.326;43.882;2022-07-03T00:10:14;100415.13;;;16.07;86.68
70302;BME280;57706;56.326;43.882;2022-07-03T00:12:40;100418.78;;;16.06;87.47
70302;BME280;57706;56.326;43.882;2022-07-03T00:15:06;100411.84;;;16.05;87.24
70302;BME280;57706;56.326;43.882;2022-07-03T00:17:33;100412.84;;;16.04;87.41
70302;BME280;57706;56.326;43.882;2022-07-03T00:19:58;100416.34;;;16.04;87.59
70302;BME280;57706;56.326;43.882;2022-07-03T00:22:25;100426.09;;;16.04;87.54
70302;BME280;57706;56.326;43.882;2022-07-03T00:24:53;100427.75;;;16.05;87.61
70302;BME280;57706;56.326;43.882;2022-07-03T00:27:24;100430.59;;;16.03;88.13
70302;BME280;57706;56.326;43.882;2022-07-03T00:29:52;100432.25;;;16.04;88.01
70302;BME280;57706;56.326;43.882;2022-07-03T00:32:24;100434.47;;;16.07;87.70
70302;BME280;57706;56.326;43.882;2022-07-03T00:34:52;100431.03;;;16.07;87.54
70302;BME280;57706;56.326;43.882;2022-07-03T00:37:19;100433.03;;;16.05;87.49
70302;BME280;57706;56.326;43.882;2022-07-03T00:39:45;100426.09;;;16.04;87.54
70302;BME280;57706;56.326;43.882;2022-07-03T00:42:12;100438.34;;;16.05;87.51
70302;BME280;57706;56.326;43.882;2022-07-03T00:44:56;100433.88;;;16.05;87.19
70302;BME280;57706;56.326;43.882;2022-07-03T00:47:24;100438.34;;;16.05;87.33
70302;BME280;57706;56.326;43.882;2022-07-03T00:49:56;100439.38;;;16.04;87.21
70302;BME280;57706;56.326;43.882;2022-07-03T00:52:23;100437.53;;;16.04;87.34
70302;BME280;57706;56.326;43.882;2022-07-03T00:54:54;100440.63;;;16.08;87.10
70302;BME280;57706;56.326;43.882;2022-07-03T00:57:21;100444.50;;;16.12;87.32
70302;BME280;57706;56.326;43.882;2022-07-03T00:59:48;100447.75;;;16.14;86.60
70302;BME280;57706;56.326;43.882;2022-07-03T01:02:28;100445.31;;;16.13;87.44
70302;BME280;57706;56.326;43.882;2022-07-03T01:05:07;100441.84;;;16.12;87.21
70302;BME280;57706;56.326;43.882;2022-07-03T01:07:41;100442.06;;;16.17;86.96
70302;BME280;57706;56.326;43.882;2022-07-03T01:10:57;100434.31;;;16.22;86.99
70302;BME280;57706;56.326;43.882;2022-07-03T01:13:42;100439.06;;;16.27;87.08
70302;BME280;57706;56.326;43.882;2022-07-03T01:16:21;100440.47;;;16.30;87.00
70302;BME280;57706;56.326;43.882;2022-07-03T01:19:10;100441.72;;;16.34;86.75
70302;BME280;57706;56.326;43.882;2022-07-03T01:28:08;100440.53;;;16.43;86.70
70302;BME280;57706;56.326;43.882;2022-07-03T01:30:50;100436.44;;;16.47;86.40
70302;BME280;57706;56.326;43.882;2022-07-03T01:33:17;100436.66;;;16.52;85.99
70302;BME280;57706;56.326;43.882;2022-07-03T01:36:04;100433.22;;;16.59;85.84
70302;BME280;57706;56.326;43.882;2022-07-03T01:38:33;100434.44;;;16.63;85.62
70302;BME280;57706;56.326;43.882;2022-07-03T01:41:01;100430.75;;;16.64;85.16
70302;BME280;57706;56.326;43.882;2022-07-03T01:43:30;100434.66;;;16.68;85.28
70302;BME280;57706;56.326;43.882;2022-07-03T01:45:58;100433.84;;;16.74;85.35
70302;BME280;57706;56.326;43.882;2022-07-03T01:48:25;100429.56;;;16.80;84.82
70302;BME280;57706;56.326;43.882;2022-07-03T01:50:51;100432.44;;;16.85;84.68
70302;BME280;57706;56.326;43.882;2022-07-03T01:53:19;100427.50;;;16.89;84.49
70302;BME280;57706;56.326;43.882;2022-07-03T01:55:47;100426.09;;;16.93;83.69
70302;BME280;57706;56.326;43.882;2022-07-03T01:58:14;100423.03;;;16.96;83.43
70302;BME280;57706;56.326;43.882;2022-07-03T02:03:28;100419.81;;;17.08;83.10
70302;BME280;57706;56.326;43.882;2022-07-03T02:06:15;100420.00;;;17.13;82.71
70302;BME280;57706;56.326;43.882;2022-07-03T02:08:58;100424.50;;;17.19;82.47
70302;BME280;57706;56.326;43.882;2022-07-03T02:11:28;100421.41;;;17.22;81.88
70302;BME280;57706;56.326;43.882;2022-07-03T02:14:19;100431.22;;;17.28;81.35
70302;BME280;57706;56.326;43.882;2022-07-03T02:16:57;100423.47;;;17.33;80.90
70302;BME280;57706;56.326;43.882;2022-07-03T02:20:06;100423.63;;;17.39;80.47
70302;BME280;57706;56.326;43.882;2022-07-03T02:23:02;100435.72;;;17.48;79.96
70302;BME280;57706;56.326;43.882;2022-07-03T02:25:37;100431.00;;;17.50;79.35
70302;BME280;57706;56.326;43.882;2022-07-03T02:28:18;100432.84;;;17.56;79.04
70302;BME280;57706;56.326;43.882;2022-07-03T02:30:51;100437.31;;;17.56;78.84
70302;BME280;57706;56.326;43.882;2022-07-03T02:33:25;100438.53;;;17.53;78.42
70302;BME280;57706;56.326;43.882;2022-07-03T02:35:53;100444.66;;;17.60;78.20
70302;BME280;57706;56.326;43.882;2022-07-03T02:38:21;100441.78;;;17.69;77.78
70302;BME280;57706;56.326;43.882;2022-07-03T02:40:57;100444.22;;;17.77;77.72
70302;BME280;57706;56.326;43.882;2022-07-03T02:43:51;100445.00;;;17.84;77.57
70302;BME280;57706;56.326;43.882;2022-07-03T02:49:43;100435.78;;;17.94;76.57
70302;BME280;57706;56.326;43.882;2022-07-03T02:54:52;100434.28;;;18.11;75.92
70302;BME280;57706;56.326;43.882;2022-07-03T02:57:19;100439.97;;;18.22;75.45
70302;BME280;57706;56.326;43.882;2022-07-03T03:02:33;100431.34;;;18.33;75.76
70302;BME280;57706;56.326;43.882;2022-07-03T03:07:35;100448.81;;;18.54;76.18
70302;BME280;57706;56.326;43.882;2022-07-03T03:10:05;100441.16;;;18.65;76.53
70302;BME280;57706;56.326;43.882;2022-07-03T03:12:36;100444.22;;;18.68;75.51
70302;BME280;57706;56.326;43.882;2022-07-03T03:15:04;100448.34;;;18.64;76.00
70302;BME280;57706;56.326;43.882;2022-07-03T03:17:50;100443.44;;;18.61;76.28
70302;BME280;57706;56.326;43.882;2022-07-03T03:20:22;100450.84;;;18.59;75.32
70302;BME280;57706;56.326;43.882;2022-07-03T03:25:21;100445.91;;;18.63;75.02
70302;BME280;57706;56.326;43.882;2022-07-03T03:27:47;100441.28;;;18.77;74.16
70302;BME280;57706;56.326;43.882;2022-07-03T03:30:13;100442.78;;;18.98;72.93
70302;BME280;57706;56.326;43.882;2022-07-03T03:32:40;100444.25;;;19.19;72.41
70302;BME280;57706;56.326;43.882;2022-07-03T03:35:07;100428.00;;;19.46;71.58
70302;BME280;57706;56.326;43.882;2022-07-03T03:37:34;100431.00;;;19.75;69.41
70302;BME280;57706;56.326;43.882;2022-07-03T03:40:02;100431.88;;;19.88;69.23
70302;BME280;57706;56.326;43.882;2022-07-03T03:42:28;100438.50;;;20.34;68.64
70302;BME280;57706;56.326;43.882;2022-07-03T03:44:54;100432.56;;;20.63;67.33
70302;BME280;57706;56.326;43.882;2022-07-03T03:47:20;100438.56;;;21.01;66.54
70302;BME280;57706;56.326;43.882;2022-07-03T03:49:46;100436.59;;;21.32;66.45
70302;BME280;57706;56.326;43.882;2022-07-03T03:52:12;100444.00;;;21.54;65.74
70302;BME280;57706;56.326;43.882;2022-07-03T03:54:56;100448.41;;;21.84;65.10
70302;BME280;57706;56.326;43.882;2022-07-03T03:57:24;100445.22;;;21.99;64.63
70302;BME280;57706;56.326;43.882;2022-07-03T03:59:51;100443.16;;;22.01;63.92
70302;BME280;57706;56.326;43.882;2022-07-03T04:02:18;100448.84;;;22.05;63.22
70302;BME280;57706;56.326;43.882;2022-07-03T04:04:44;100446.34;;;22.15;63.42
70302;BME280;57706;56.326;43.882;2022-07-03T04:07:10;100454.75;;;22.36;62.18
70302;BME280;57706;56.326;43.882;2022-07-03T04:09:36;100459.47;;;22.46;61.28
70302;BME280;57706;56.326;43.882;2022-07-03T04:12:02;100460.69;;;22.67;60.62
70302;BME280;57706;56.326;43.882;2022-07-03T04:14:28;100450.28;;;22.71;61.17
70302;BME280;57706;56.326;43.882;2022-07-03T04:16:54;100454.34;;;22.90;60.79
70302;BME280;57706;56.326;43.882;2022-07-03T04:19:21;100459.81;;;22.95;61.14
70302;BME280;57706;56.326;43.882;2022-07-03T04:21:48;100463.53;;;23.12;60.86
70302;BME280;57706;56.326;43.882;2022-07-03T04:24:17;100459.72;;;23.24;60.61
70302;BME280;57706;56.326;43.882;2022-07-03T04:26:43;100460.69;;;23.35;60.16
70302;BME280;57706;56.326;43.882;2022-07-03T04:29:09;100453.78;;;23.40;60.59
70302;BME280;57706;56.326;43.882;2022-07-03T04:31:35;100470.09;;;23.55;60.42
70302;BME280;57706;56.326;43.882;2022-07-03T04:34:01;100461.16;;;23.49;60.70
70302;BME280;57706;56.326;43.882;2022-07-03T04:36:27;100463.03;;;23.49;60.30
70302;BME280;57706;56.326;43.882;2022-07-03T04:38:54;100458.41;;;23.10;60.45
70302;BME280;57706;56.326;43.882;2022-07-03T04:41:20;100458.75;;;22.79;62.18
70302;BME280;57706;56.326;43.882;2022-07-03T04:43:46;100455.31;;;23.01;60.73
70302;BME280;57706;56.326;43.882;2022-07-03T04:46:12;100461.69;;;23.29;59.85
70302;BME280;57706;56.326;43.882;2022-07-03T04:48:38;100463.47;;;23.85;57.72
70302;BME280;57706;56.326;43.882;2022-07-03T04:51:04;100454.84;;;24.28;56.79
70302;BME280;57706;56.326;43.882;2022-07-03T04:53:30;100457.34;;;24.35;55.76
70302;BME280;57706;56.326;43.882;2022-07-03T04:55:56;100455.50;;;24.40;55.96
70302;BME280;57706;56.326;43.882;2022-07-03T04:58:22;100450.28;;;24.56;56.15
70302;BME280;57706;56.326;43.882;2022-07-03T05:01:06;100461.16;;;24.71;55.51
70302;BME280;57706;56.326;43.882;2022-07-03T05:03:32;100459.13;;;24.79;56.36
70302;BME280;57706;56.326;43.882;2022-07-03T05:05:58;100461.41;;;24.97;55.70
70302;BME280;57706;56.326;43.882;2022-07-03T05:08:24;100458.72;;;25.02;55.33
70302;BME280;57706;56.326;43.882;2022-07-03T05:10:49;100462.03;;;24.77;55.99
70302;BME280;57706;56.326;43.882;2022-07-03T05:13:34;100461.72;;;24.73;55.29
70302;BME280;57706;56.326;43.882;2022-07-03T05:16:00;100458.06;;;24.85;55.78
70302;BME280;57706;56.326;43.882;2022-07-03T05:18:26;100461.53;;;25.18;55.00
70302;BME280;57706;56.326;43.882;2022-07-03T05:20:51;100464.38;;;25.44;54.43
70302;BME280;57706;56.326;43.882;2022-07-03T05:23:17;100461.03;;;25.69;54.26
70302;BME280;57706;56.326;43.882;2022-07-03T05:25:43;100464.91;;;25.94;53.60
70302;BME280;57706;56.326;43.882;2022-07-03T05:28:09;100466.84;;;26.15;52.98
70302;BME280;57706;56.326;43.882;2022-07-03T05:30:35;100467.72;;;26.46;52.39
70302;BME280;57706;56.326;43.882;2022-07-03T05:33:00;100462.66;;;26.71;51.34
70302;BME280;57706;56.326;43.882;2022-07-03T05:35:26;100460.47;;;26.83;50.77
70302;BME280;57706;56.326;43.882;2022-07-03T05:37:52;100460.19;;;27.21;50.59
70302;BME280;57706;56.326;43.882;2022-07-03T05:40:19;100464.69;;;27.62;49.15
70302;BME280;57706;56.326;43.882;2022-07-03T05:42:45;100457.13;;;27.59;49.56
70302;BME280;57706;56.326;43.882;2022-07-03T05:45:11;100461.19;;;27.46;49.93
70302;BME280;57706;56.326;43.882;2022-07-03T05:47:36;100462.59;;;27.33;50.22
70302;BME280;57706;56.326;43.882;2022-07-03T05:50:03;100454.00;;;27.20;49.52
70302;BME280;57706;56.326;43.882;2022-07-03T05:52:29;100458.31;;;27.21;49.84
70302;BME280;57706;56.326;43.882;2022-07-03T05:54:55;100443.22;;;26.79;49.66
70302;BME280;57706;56.326;43.882;2022-07-03T05:57:20;100457.66;;;27.51;49.10
70302;BME280;57706;56.326;43.882;2022-07-03T06:00:05;100455.59;;;28.48;46.57
70302;BME280;57706;56.326;43.882;2022-07-03T06:02:31;100450.56;;;33.01;38.09
70302;BME280;57706;56.326;43.882;2022-07-03T06:04:57;100442.84;;;33.35;37.33
70302;BME280;57706;56.326;43.882;2022-07-03T06:07:23;100443.84;;;37.43;29.75
70302;BME280;57706;56.326;43.882;2022-07-03T06:09:49;100434.69;;;37.64;29.25
70302;BME280;57706;56.326;43.882;2022-07-03T06:12:15;100437.59;;;37.17;31.25
70302;BME280;57706;56.326;43.882;2022-07-03T06:14:41;100436.66;;;34.58;33.09
70302;BME280;57706;56.326;43.882;2022-07-03T06:17:09;100438.31;;;32.90;36.58
70302;BME280;57706;56.326;43.882;2022-07-03T06:19:35;100441.97;;;31.94;37.78
70302;BME280;57706;56.326;43.882;2022-07-03T06:22:01;100435.72;;;31.28;39.28
70302;BME280;57706;56.326;43.882;2022-07-03T06:24:26;100438.91;;;30.36;40.53
70302;BME280;57706;56.326;43.882;2022-07-03T06:26:52;100441.00;;;30.01;42.00
70302;BME280;57706;56.326;43.882;2022-07-03T06:29:18;100449.00;;;29.92;42.11
70302;BME280;57706;56.326;43.882;2022-07-03T06:31:44;100445.81;;;30.95;40.94
70302;BME280;57706;56.326;43.882;2022-07-03T06:34:10;100453.31;;;31.45;40.35
70302;BME280;57706;56.326;43.882;2022-07-03T06:36:36;100453.47;;;31.63;39.28
70302;BME280;57706;56.326;43.882;2022-07-03T06:39:02;100452.31;;;32.28;37.99
70302;BME280;57706;56.326;43.882;2022-07-03T06:41:28;100450.78;;;34.60;33.91
70302;BME280;57706;56.326;43.882;2022-07-03T06:43:54;100448.06;;;39.67;27.29
70302;BME280;57706;56.326;43.882;2022-07-03T06:46:19;100434.66;;;43.15;23.12
70302;BME280;57706;56.326;43.882;2022-07-03T06:48:45;100441.50;;;45.86;19.94
70302;BME280;57706;56.326;43.882;2022-07-03T06:51:11;100438.84;;;45.57;20.14
70302;BME280;57706;56.326;43.882;2022-07-03T06:53:37;100439.84;;;44.56;20.94
70302;BME280;57706;56.326;43.882;2022-07-03T06:56:03;100432.91;;;43.55;21.76
70302;BME280;57706;56.326;43.882;2022-07-03T06:58:29;100430.53;;;41.08;24.25
70302;BME280;57706;56.326;43.882;2022-07-03T07:00:55;100432.22;;;43.87;21.86
70302;BME280;57706;56.326;43.882;2022-07-03T07:03:20;100429.41;;;47.72;18.90
70302;BME280;57706;56.326;43.882;2022-07-03T07:05:46;100435.28;;;50.28;16.00
70302;BME280;57706;56.326;43.882;2022-07-03T07:08:12;100429.06;;;48.69;16.74
70302;BME280;57706;56.326;43.882;2022-07-03T07:10:38;100428.44;;;47.55;18.07
70302;BME280;57706;56.326;43.882;2022-07-03T07:13:04;100439.81;;;44.78;20.57
70302;BME280;57706;56.326;43.882;2022-07-03T07:15:30;100438.72;;;48.41;17.20
70302;BME280;57706;56.326;43.882;2022-07-03T07:17:55;100436.09;;;50.75;15.35
70302;BME280;57706;56.326;43.882;2022-07-03T07:20:40;100428.91;;;51.85;13.97
70302;BME280;57706;56.326;43.882;2022-07-03T07:23:06;100426.38;;;44.44;19.24
70302;BME280;57706;56.326;43.882;2022-07-03T07:25:32;100439.63;;;43.58;21.01
70302;BME280;57706;56.326;43.882;2022-07-03T07:27:57;100433.69;;;39.94;24.41
70302;BME280;57706;56.326;43.882;2022-07-03T07:30:23;100434.19;;;45.29;18.73
70302;BME280;57706;56.326;43.882;2022-07-03T07:32:49;100434.31;;;47.92;16.34
70302;BME280;57706;56.326;43.882;2022-07-03T07:35:15;100444.56;;;46.56;18.22
70302;BME280;57706;56.326;43.882;2022-07-03T07:37:40;100436.25;;;43.16;21.00
70302;BME280;57706;56.326;43.882;2022-07-03T07:40:25;100442.59;;;38.83;26.06
70302;BME280;57706;56.326;43.882;2022-07-03T07:42:51;100435.34;;;37.73;26.90
70302;BME280;57706;56.326;43.882;2022-07-03T07:45:17;100444.03;;;36.63;28.19
70302;BME280;57706;56.326;43.882;2022-07-03T07:47:42;100437.78;;;40.23;23.91
70302;BME280;57706;56.326;43.882;2022-07-03T07:50:09;100439.41;;;46.01;18.54
70302;BME280;57706;56.326;43.882;2022-07-03T07:52:35;100427.84;;;43.79;20.35
70302;BME280;57706;56.326;43.882;2022-07-03T07:55:01;100437.72;;;40.00;24.04
70302;BME280;57706;56.326;43.882;2022-07-03T07:57:38;100433.66;;;37.97;25.88
70302;BME280;57706;56.326;43.882;2022-07-03T08:00:10;100436.66;;;42.20;21.53
70302;BME280;57706;56.326;43.882;2022-07-03T08:02:38;100434.34;;;47.26;17.44
70302;BME280;57706;56.326;43.882;2022-07-03T08:05:23;100429.00;;;47.08;17.25
70302;BME280;57706;56.326;43.882;2022-07-03T08:08:13;100431.94;;;43.22;21.10
70302;BME280;57706;56.326;43.882;2022-07-03T08:10:44;100434.69;;;40.48;23.49
70302;BME280;57706;56.326;43.882;2022-07-03T08:13:12;100441.88;;;37.97;26.21
70302;BME280;57706;56.326;43.882;2022-07-03T08:15:38;100447.38;;;41.03;22.96
70302;BME280;57706;56.326;43.882;2022-07-03T08:18:05;100446.22;;;41.31;22.73
70302;BME280;57706;56.326;43.882;2022-07-03T08:20:31;100456.28;;;45.58;18.80
70302;BME280;57706;56.326;43.882;2022-07-03T08:22:58;100447.38;;;48.22;16.52
70302;BME280;57706;56.326;43.882;2022-07-03T08:25:24;100446.25;;;51.54;13.97
70302;BME280;57706;56.326;43.882;2022-07-03T08:27:51;100445.38;;;44.41;19.67
70302;BME280;57706;56.326;43.882;2022-07-03T08:30:18;100452.22;;;40.63;23.19
70302;BME280;57706;56.326;43.882;2022-07-03T08:32:45;100454.72;;;39.14;24.53
70302;BME280;57706;56.326;43.882;2022-07-03T08:35:12;100441.59;;;40.38;23.42
70302;BME280;57706;56.326;43.882;2022-07-03T08:37:38;100448.00;;;47.13;17.12
70302;BME280;57706;56.326;43.882;2022-07-03T08:40:07;100444.81;;;49.61;15.38
70302;BME280;57706;56.326;43.882;2022-07-03T08:42:35;100449.94;;;50.49;14.47
70302;BME280;57706;56.326;43.882;2022-07-03T08:45:02;100447.88;;;52.77;13.06
70302;BME280;57706;56.326;43.882;2022-07-03T08:47:31;100448.16;;;53.56;12.49
70302;BME280;57706;56.326;43.882;2022-07-03T08:49:58;100430.22;;;52.54;13.03
70302;BME280;57706;56.326;43.882;2022-07-03T08:52:26;100436.16;;;53.64;12.57
70302;BME280;57706;56.326;43.882;2022-07-03T08:54:52;100434.00;;;54.66;11.90
70302;BME280;57706;56.326;43.882;2022-07-03T08:57:18;100429.34;;;56.31;11.15
70302;BME280;57706;56.326;43.882;2022-07-03T08:59:48;100431.88;;;57.34;9.95
70302;BME280;57706;56.326;43.882;2022-07-03T09:02:16;100440.47;;;57.40;9.37
70302;BME280;57706;56.326;43.882;2022-07-03T09:04:43;100422.56;;;58.26;9.61
70302;BME280;57706;56.326;43.882;2022-07-03T09:07:11;100419.34;;;58.34;9.42
70302;BME280;57706;56.326;43.882;2022-07-03T09:09:39;100419.34;;;58.13;9.07
70302;BME280;57706;56.326;43.882;2022-07-03T09:12:05;100423.94;;;52.85;12.81
70302;BME280;57706;56.326;43.882;2022-07-03T09:14:31;100418.34;;;49.32;14.81
70302;BME280;57706;56.326;43.882;2022-07-03T09:17:00;100428.00;;;51.88;13.13
70302;BME280;57706;56.326;43.882;2022-07-03T09:19:48;100424.75;;;54.74;10.70
70302;BME280;57706;56.326;43.882;2022-07-03T09:22:33;100419.81;;;56.29;9.84
70302;BME280;57706;56.326;43.882;2022-07-03T09:25:05;100428.75;;;57.47;8.67
70302;BME280;57706;56.326;43.882;2022-07-03T09:27:32;100415.91;;;57.46;9.09
70302;BME280;57706;56.326;43.882;2022-07-03T09:30:07;100427.25;;;55.77;9.79
70302;BME280;57706;56.326;43.882;2022-07-03T09:35:24;100411.91;;;57.17;9.27
70302;BME280;57706;56.326;43.882;2022-07-03T09:40:22;100424.53;;;46.33;16.34
70302;BME280;57706;56.326;43.882;2022-07-03T09:43:02;100429.84;;;43.04;18.67
70302;BME280;57706;56.326;43.882;2022-07-03T09:45:52;100431.91;;;40.95;20.68
70302;BME280;57706;56.326;43.882;2022-07-03T09:48:28;100432.50;;;41.35;20.26
70302;BME280;57706;56.326;43.882;2022-07-03T09:56:21;100427.91;;;42.53;19.31
70302;BME280;57706;56.326;43.882;2022-07-03T10:01:31;100430.47;;;39.16;21.76
70302;BME280;57706;56.326;43.882;2022-07-03T10:04:13;100431.97;;;38.21;23.25
70302;BME280;57706;56.326;43.882;2022-07-03T10:09:35;100439.44;;;44.76;17.60
70302;BME280;57706;56.326;43.882;2022-07-03T10:12:05;100438.44;;;50.30;13.64
70302;BME280;57706;56.326;43.882;2022-07-03T10:14:32;100440.81;;;52.59;12.31
70302;BME280;57706;56.326;43.882;2022-07-03T10:16:58;100438.63;;;51.93;11.34
70302;BME280;57706;56.326;43.882;2022-07-03T10:19:29;100430.88;;;55.35;9.55
70302;BME280;57706;56.326;43.882;2022-07-03T10:22:02;100437.69;;;56.10;9.00
70302;BME280;57706;56.326;43.882;2022-07-03T10:24:47;100432.34;;;56.82;9.11
70302;BME280;57706;56.326;43.882;2022-07-03T10:27:14;100428.75;;;57.47;8.67
70302;BME280;57706;56.326;43.882;2022-07-03T10:29:40;100429.59;;;56.58;9.24
70302;BME280;57706;56.326;43.882;2022-07-03T10:32:07;100437.53;;;56.05;9.65
70302;BME280;57706;56.326;43.882;2022-07-03T10:34:34;100431.81;;;55.32;9.58
70302;BME280;57706;56.326;43.882;2022-07-03T10:37:03;100434.66;;;56.53;8.85
70302;BME280;57706;56.326;43.882;2022-07-03T10:42:24;100433.78;;;55.74;9.52
70302;BME280;57706;56.326;43.882;2022-07-03T10:45:12;100436.06;;;52.47;11.42
70302;BME280;57706;56.326;43.882;2022-07-03T10:47:48;100433.78;;;53.94;10.75
70302;BME280;57706;56.326;43.882;2022-07-03T10:50:22;100432.16;;;55.24;10.09
70302;BME280;57706;56.326;43.882;2022-07-03T10:52:49;100436.69;;;56.14;9.76
70302;BME280;57706;56.326;43.882;2022-07-03T10:55:16;100433.88;;;56.83;9.03
70302;BME280;57706;56.326;43.882;2022-07-03T10:58:29;100441.00;;;56.24;9.08
70302;BME280;57706;56.326;43.882;2022-07-03T11:00:29;100440.31;;;55.13;9.80
70302;BME280;57706;56.326;43.882;2022-07-03T11:02:55;100442.81;;;52.72;10.53
70302;BME280;57706;56.326;43.882;2022-07-03T11:05:25;100437.88;;;49.85;12.61
70302;BME280;57706;56.326;43.882;2022-07-03T11:13:04;100437.69;;;49.19;13.12
70302;BME280;57706;56.326;43.882;2022-07-03T11:15:33;100430.78;;;52.49;11.13
70302;BME280;57706;56.326;43.882;2022-07-03T11:20:32;100440.84;;;55.45;9.71
70302;BME280;57706;56.326;43.882;2022-07-03T11:25:50;100431.88;;;53.82;10.06
70302;BME280;57706;56.326;43.882;2022-07-03T11:33:43;100424.06;;;55.75;8.79
70302;BME280;57706;56.326;43.882;2022-07-03T11:38:49;100424.84;;;56.09;8.62
70302;BME280;57706;56.326;43.882;2022-07-03T11:41:18;100420.84;;;56.41;8.71
70302;BME280;57706;56.326;43.882;2022-07-03T11:43:53;100430.97;;;56.23;8.26
70302;BME280;57706;56.326;43.882;2022-07-03T11:46:20;100431.41;;;56.06;8.47
70302;BME280;57706;56.326;43.882;2022-07-03T11:48:46;100415.09;;;56.50;8.63
70302;BME280;57706;56.326;43.882;2022-07-03T11:51:12;100426.50;;;56.71;8.69
70302;BME280;57706;56.326;43.882;2022-07-03T11:53:39;100426.22;;;56.14;8.66
70302;BME280;57706;56.326;43.882;2022-07-03T11:56:07;100413.16;;;55.77;9.02
70302;BME280;57706;56.326;43.882;2022-07-03T12:01:11;100405.97;;;55.67;9.06
70302;BME280;57706;56.326;43.882;2022-07-03T12:03:54;100407.56;;;54.82;9.59
70302;BME280;57706;56.326;43.882;2022-07-03T12:06:34;100412.19;;;55.03;9.08
70302;BME280;57706;56.326;43.882;2022-07-03T12:09:00;100407.66;;;55.49;8.94
70302;BME280;57706;56.326;43.882;2022-07-03T12:11:26;100398.56;;;54.12;9.92
70302;BME280;57706;56.326;43.882;2022-07-03T12:13:52;100406.81;;;53.56;9.97
70302;BME280;57706;56.326;43.882;2022-07-03T12:16:31;100402.88;;;52.68;10.39
70302;BME280;57706;56.326;43.882;2022-07-03T12:19:04;100401.06;;;53.19;10.59
70302;BME280;57706;56.326;43.882;2022-07-03T12:21:36;100402.72;;;52.84;10.38
70302;BME280;57706;56.326;43.882;2022-07-03T12:24:10;100405.81;;;53.09;10.40
70302;BME280;57706;56.326;43.882;2022-07-03T12:26:36;100404.69;;;53.70;10.32
70302;BME280;57706;56.326;43.882;2022-07-03T12:29:05;100400.81;;;51.75;11.27
70302;BME280;57706;56.326;43.882;2022-07-03T12:31:32;100403.03;;;52.29;10.79
70302;BME280;57706;56.326;43.882;2022-07-03T12:33:59;100402.41;;;52.25;11.21
70302;BME280;57706;56.326;43.882;2022-07-03T12:36:26;100418.38;;;48.20;13.30
70302;BME280;57706;56.326;43.882;2022-07-03T12:38:53;100404.56;;;49.62;12.17
70302;BME280;57706;56.326;43.882;2022-07-03T12:41:20;100407.06;;;48.31;13.22
70302;BME280;57706;56.326;43.882;2022-07-03T12:43:48;100407.56;;;46.21;14.56
70302;BME280;57706;56.326;43.882;2022-07-03T12:46:16;100418.06;;;46.44;14.31
70302;BME280;57706;56.326;43.882;2022-07-03T12:48:47;100401.28;;;47.35;13.52
70302;BME280;57706;56.326;43.882;2022-07-03T12:51:14;100399.31;;;47.32;13.74
70302;BME280;57706;56.326;43.882;2022-07-03T12:53:40;100409.34;;;45.00;15.34
70302;BME280;57706;56.326;43.882;2022-07-03T12:56:08;100419.56;;;46.07;14.38
70302;BME280;57706;56.326;43.882;2022-07-03T12:58:39;100414.44;;;48.41;13.20
70302;BME280;57706;56.326;43.882;2022-07-03T13:01:28;100418.69;;;49.88;11.97
70302;BME280;57706;56.326;43.882;2022-07-03T13:03:54;100416.94;;;50.27;11.73
70302;BME280;57706;56.326;43.882;2022-07-03T13:06:21;100425.31;;;50.44;11.70
70302;BME280;57706;56.326;43.882;2022-07-03T13:09:10;100425.03;;;50.54;11.46
70302;BME280;57706;56.326;43.882;2022-07-03T13:11:54;100425.72;;;50.59;11.66
70302;BME280;57706;56.326;43.882;2022-07-03T13:14:38;100434.25;;;50.38;11.81
70302;BME280;57706;56.326;43.882;2022-07-03T13:17:04;100426.69;;;50.52;11.46
70302;BME280;57706;56.326;43.882;2022-07-03T13:19:30;100423.00;;;50.72;11.01
70302;BME280;57706;56.326;43.882;2022-07-03T13:21:57;100428.53;;;49.39;12.07
70302;BME280;57706;56.326;43.882;2022-07-03T13:24:24;100414.25;;;48.96;12.53
70302;BME280;57706;56.326;43.882;2022-07-03T13:26:50;100416.47;;;47.58;13.33
70302;BME280;57706;56.326;43.882;2022-07-03T13:29:17;100422.16;;;45.68;14.57
70302;BME280;57706;56.326;43.882;2022-07-03T13:31:43;100422.88;;;42.69;17.03
70302;BME280;57706;56.326;43.882;2022-07-03T13:34:08;100427.66;;;40.08;19.30
70302;BME280;57706;56.326;43.882;2022-07-03T13:36:35;100421.50;;;38.87;20.33
70302;BME280;57706;56.326;43.882;2022-07-03T13:39:00;100421.00;;;37.39;22.06
70302;BME280;57706;56.326;43.882;2022-07-03T13:41:27;100423.31;;;36.87;22.79
70302;BME280;57706;56.326;43.882;2022-07-03T13:43:53;100431.47;;;36.16;23.88
70302;BME280;57706;56.326;43.882;2022-07-03T13:46:20;100417.13;;;35.55;24.56
70302;BME280;57706;56.326;43.882;2022-07-03T13:49:11;100427.91;;;34.82;25.21
70302;BME280;57706;56.326;43.882;2022-07-03T13:51:37;100427.22;;;34.38;25.64
70302;BME280;57706;56.326;43.882;2022-07-03T13:54:03;100422.13;;;34.01;26.21
70302;BME280;57706;56.326;43.882;2022-07-03T13:56:28;100419.28;;;33.39;27.55